Pukalani, Hawaii
Current Conditions -  °F | °C
As of 3:54 AM on Sunday 23 Nov 2014 (Local Time) from PHOG Reporting Station
Clear Clear  
Wind Chill: 64°   Ceiling: Unl
Heat Index: 64°   Visibility: 10mi
Dew Point: 61°   Wind: 5mph
Humidity: 90%   Direction: 190°S
Pressure: 29.99"   Gusts: NA
Location:  20.83°N, 156.32°W
Report Text: PHOG 231354Z AUTO 19004KT 10SM CLR 18/16 A2999 RMK AO2 SLP159 T01780161 TSNO
Loading
Personal Weather Stations






























Interactive Weather Map New forecast layout! Learn more

10-Day Weather Forecast

Advertisements
Track Severe Weather on mobile